Time;durP1;ratioP1;P1;durP2;ratioP2;P2;SDS_P1;SDS_P2;PMS_P1;PMS_P2;Temp;Humidity;BMP_temperature;BMP_pressure;BME280_temperature;BME280_humidity;BME280_pressure;Samples;Min_cycle;Max_cycle;Signal;HPM_P1;HPM_P2
2021/03/09 00:00:35;;;;;;;8.57;3.05;;;1.70;55.90;;;;;;5047895;28;19909;-71
2021/03/09 00:03:01;;;;;;;;;;;1.70;55.70;;;;;;5047893;28;20175;-70
2021/03/09 00:05:27;;;;;;;9.43;2.58;;;1.70;54.70;;;;;;5046887;28;19916;-70
2021/03/09 00:07:52;;;;;;;;;;;1.70;54.50;;;;;;5048569;28;20029;-71
2021/03/09 00:10:18;;;;;;;6.85;2.72;;;1.70;54.30;;;;;;5046041;28;19915;-71
2021/03/09 00:12:43;;;;;;;;;;;1.70;54.70;;;;;;5046507;28;20145;-70
2021/03/09 00:15:09;;;;;;;6.53;2.88;;;1.70;55.10;;;;;;5047936;28;19908;-71
2021/03/09 00:17:35;;;;;;;7.82;3.33;;;1.70;55.10;;;;;;5047002;28;20056;-70
2021/03/09 00:20:01;;;;;;;;;;;1.70;55.10;;;;;;5048288;28;20068;-70
2021/03/09 00:22:26;;;;;;;8.95;2.63;;;1.70;56.20;;;;;;5047331;28;19912;-71
2021/03/09 00:24:52;;;;;;;;;;;1.60;56.40;;;;;;5047888;28;20033;-70
2021/03/09 00:27:17;;;;;;;6.70;3.25;;;1.60;58.50;;;;;;5047545;28;19963;-70
2021/03/09 00:29:43;;;;;;;;;;;1.60;58.20;;;;;;5047881;28;20036;-71
2021/03/09 00:32:09;;;;;;;8.38;3.17;;;1.60;59.40;;;;;;5046679;28;20072;-70
2021/03/09 00:34:35;;;;;;;11.13;4.65;;;1.60;59.90;;;;;;5046951;28;20028;-69
2021/03/09 00:37:02;;;;;;;12.80;5.35;;;1.50;61.20;;;;;;5045410;28;20123;-70
2021/03/09 00:39:27;;;;;;;12.75;7.32;;;1.50;64.00;;;;;;5047264;28;20090;-70
2021/03/09 00:41:53;;;;;;;;;;;1.40;67.50;;;;;;5047280;28;20402;-70
2021/03/09 00:44:19;;;;;;;13.95;8.10;;;1.40;70.10;;;;;;5047268;28;20396;-70
2021/03/09 00:46:45;;;;;;;;;;;1.40;70.50;;;;;;5045743;28;20020;-71
2021/03/09 00:49:10;;;;;;;14.23;8.25;;;1.40;71.80;;;;;;5046420;28;20330;-70
2021/03/09 00:51:36;;;;;;;;;;;1.40;72.10;;;;;;5047336;28;20037;-70
2021/03/09 00:54:02;;;;;;;16.92;9.25;;;1.30;73.40;;;;;;5046629;28;20464;-71
2021/03/09 00:56:27;;;;;;;16.98;9.00;;;1.30;73.40;;;;;;5046950;28;20025;-71
2021/03/09 00:58:53;;;;;;;15.13;9.98;;;1.30;74.20;;;;;;5045034;28;20029;-71
2021/03/09 01:01:19;;;;;;;17.88;9.13;;;1.30;74.80;;;;;;5045426;28;20406;-71
2021/03/09 01:03:44;;;;;;;;;;;1.30;74.30;;;;;;5046897;28;20037;-70
2021/03/09 01:06:10;;;;;;;18.60;10.45;;;1.20;74.70;;;;;;5044511;28;19912;-71
2021/03/09 01:08:36;;;;;;;;;;;1.20;74.50;;;;;;5046060;28;20053;-70
2021/03/09 01:11:01;;;;;;;22.02;10.60;;;1.20;75.40;;;;;;5046622;28;19939;-69
2021/03/09 01:13:27;;;;;;;;;;;1.10;75.40;;;;;;5045307;28;20095;-70
2021/03/09 01:15:52;;;;;;;15.65;9.75;;;1.10;76.10;;;;;;5046261;28;20714;-69
2021/03/09 01:18:19;;;;;;;19.35;10.48;;;1.00;75.70;;;;;;5046503;28;20028;-70
2021/03/09 01:20:46;;;;;;;18.00;9.48;;;1.00;75.70;;;;;;5046493;28;20033;-70
2021/03/09 01:23:12;;;;;;;17.02;9.52;;;1.10;75.70;;;;;;5046487;28;20028;-70
2021/03/09 01:25:38;;;;;;;;;;;1.10;75.70;;;;;;5046916;28;20082;-70
2021/03/09 01:28:03;;;;;;;18.60;9.90;;;1.00;75.60;;;;;;5044793;28;20361;-71
2021/03/09 01:30:29;;;;;;;19.27;10.68;;;1.10;76.40;;;;;;5046292;28;20033;-70
2021/03/09 01:32:54;;;;;;;;;;;1.00;76.20;;;;;;5046110;28;20048;-70
2021/03/09 01:35:20;;;;;;;18.13;9.35;;;1.00;77.20;;;;;;5046637;28;19966;-71
2021/03/09 01:37:46;;;;;;;;;;;0.90;77.00;;;;;;5046572;28;20032;-71
2021/03/09 01:40:12;;;;;;;21.10;10.23;;;0.90;77.00;;;;;;5046136;28;19909;-70
2021/03/09 01:42:38;;;;;;;23.17;12.13;;;0.90;76.60;;;;;;5046389;28;20059;-69
2021/03/09 01:45:06;;;;;;;17.70;10.07;;;0.90;76.50;;;;;;5045572;28;20456;-71
2021/03/09 01:47:32;;;;;;;18.45;9.93;;;0.80;76.80;;;;;;5045462;28;20087;-70
2021/03/09 01:49:59;;;;;;;18.20;11.38;;;0.80;77.00;;;;;;5046380;28;20028;-69
2021/03/09 01:52:25;;;;;;;21.08;11.60;;;0.80;77.80;;;;;;5045617;28;20589;-71
2021/03/09 01:54:51;;;;;;;19.20;11.48;;;0.80;77.60;;;;;;5045998;28;20040;-70
2021/03/09 01:57:17;;;;;;;;;;;0.80;77.40;;;;;;5046342;28;20025;-71
2021/03/09 01:59:44;;;;;;;25.08;11.43;;;0.80;77.70;;;;;;5045787;28;19909;-70
2021/03/09 02:02:10;;;;;;;18.80;10.23;;;0.80;77.20;;;;;;5045548;28;20021;-69
2021/03/09 02:04:36;;;;;;;;;;;0.80;76.70;;;;;;5046197;28;20036;-70
2021/03/09 02:07:02;;;;;;;20.45;9.80;;;0.80;76.60;;;;;;5045892;28;20265;-70
2021/03/09 02:09:28;;;;;;;;;;;0.70;76.80;;;;;;5046390;28;20032;-70
2021/03/09 02:12:02;;;;;;;20.25;11.02;;;0.70;76.50;;;;;;5044543;28;19916;-71
2021/03/09 02:14:59;;;;;;;19.50;10.70;;;0.70;76.20;;;;;;5045738;28;20749;-70
2021/03/09 02:17:37;;;;;;;;;;;0.80;75.90;;;;;;5045261;28;20085;-71
2021/03/09 02:20:36;;;;;;;16.33;9.05;;;0.80;75.30;;;;;;5048131;28;19909;-70
2021/03/09 02:23:39;;;;;;;10.93;5.40;;;0.70;74.60;;;;;;5049813;28;20147;-70
2021/03/09 02:26:40;;;;;;;13.43;6.65;;;0.90;73.00;;;;;;5048865;28;20029;-69
2021/03/09 02:29:28;;;;;;;13.88;7.25;;;0.80;73.30;;;;;;5049880;28;20091;-70
2021/03/09 02:31:55;;;;;;;18.58;7.97;;;0.80;73.90;;;;;;5049400;28;20029;-70
2021/03/09 02:34:33;;;;;;;15.07;7.65;;;0.70;74.20;;;;;;5048304;28;20043;-71
2021/03/09 02:37:06;;;;;;;18.13;8.90;;;0.70;74.40;;;;;;5048212;28;20481;-71
2021/03/09 02:39:33;;;;;;;20.20;8.90;;;0.70;74.70;;;;;;5048213;28;20033;-70
2021/03/09 02:42:02;;;;;;;22.23;10.68;;;0.60;74.90;;;;;;5049308;28;20070;-70
2021/03/09 02:44:29;;;;;;;24.08;11.02;;;0.70;74.90;;;;;;5049252;28;20490;-70
2021/03/09 02:46:57;;;;;;;22.45;10.07;;;0.60;74.40;;;;;;5048866;28;20029;-70
2021/03/09 02:49:24;;;;;;;22.15;8.52;;;0.60;74.70;;;;;;5047558;28;20474;-71
2021/03/09 02:51:51;;;;;;;17.60;8.80;;;0.60;74.90;;;;;;5049633;28;20029;-71
2021/03/09 02:54:18;;;;;;;15.93;9.23;;;0.60;74.70;;;;;;5049206;28;20044;-69
2021/03/09 02:56:45;;;;;;;18.63;9.45;;;0.60;74.70;;;;;;5048787;28;20059;-70
2021/03/09 02:59:13;;;;;;;19.05;9.35;;;0.70;74.60;;;;;;5048694;28;20428;-70
2021/03/09 03:01:42;;;;;;;14.90;8.20;;;0.60;74.30;;;;;;5047529;28;20025;-70
2021/03/09 03:04:12;;;;;;;17.85;9.32;;;0.60;74.40;;;;;;5049182;28;20436;-70
2021/03/09 03:06:38;;;;;;;17.38;8.40;;;0.60;74.80;;;;;;5049224;28;20033;-71
2021/03/09 03:09:05;;;;;;;14.65;7.60;;;0.60;74.90;;;;;;5047348;28;20290;-70
2021/03/09 03:11:32;;;;;;;16.50;9.20;;;0.60;74.90;;;;;;5049068;28;20482;-70
2021/03/09 03:14:02;;;;;;;14.43;7.75;;;0.60;74.80;;;;;;5048711;28;20057;-70
2021/03/09 03:16:29;;;;;;;15.18;7.13;;;0.70;74.40;;;;;;5047469;28;20175;-71
2021/03/09 03:18:59;;;;;;;15.57;7.10;;;0.70;74.30;;;;;;5048758;28;20676;-70
2021/03/09 03:21:26;;;;;;;15.85;7.82;;;0.70;73.70;;;;;;5048618;28;20029;-70
2021/03/09 03:23:53;;;;;;;16.52;8.15;;;0.70;72.90;;;;;;5047370;28;20029;-71
2021/03/09 03:26:21;;;;;;;12.73;6.95;;;0.70;72.80;;;;;;5047272;28;20032;-70
2021/03/09 03:28:47;;;;;;;15.98;7.05;;;0.70;73.00;;;;;;5047387;28;20310;-71
2021/03/09 03:31:13;;;;;;;;;;;0.70;73.00;;;;;;5048903;28;20025;-71
2021/03/09 03:33:39;;;;;;;19.58;8.07;;;0.60;73.00;;;;;;5046786;28;20146;-70
2021/03/09 03:36:04;;;;;;;;;;;0.60;72.90;;;;;;5049097;28;20035;-70
2021/03/09 03:38:37;;;;;;;14.07;6.70;;;0.70;72.30;;;;;;5048395;28;20118;-70
2021/03/09 03:41:04;;;;;;;14.38;6.15;;;0.60;72.20;;;;;;5047873;28;20108;-70
2021/03/09 03:43:30;;;;;;;13.60;5.38;;;0.70;71.80;;;;;;5047929;28;20113;-71
2021/03/09 03:45:56;;;;;;;11.77;5.78;;;0.60;71.70;;;;;;5048043;28;20330;-70
2021/03/09 03:48:22;;;;;;;;;;;0.60;71.90;;;;;;5048337;28;20057;-70
2021/03/09 03:50:49;;;;;;;16.02;6.00;;;0.50;71.60;;;;;;5046750;28;19909;-70
2021/03/09 03:53:33;;;;;;;19.77;7.63;;;0.50;72.10;;;;;;5047937;28;20791;-71
2021/03/09 03:56:40;;;;;;;14.18;6.88;;;0.40;72.30;;;;;;5046428;28;20033;-70
2021/03/09 03:59:12;;;;;;;15.35;6.22;;;0.40;72.70;;;;;;5034881;28;20123;-70
2021/03/09 04:01:39;;;;;;;14.88;5.90;;;0.30;72.60;;;;;;5047799;28;20025;-70
2021/03/09 04:04:09;;;;;;;10.50;5.75;;;0.30;72.20;;;;;;5046705;28;20072;-70
2021/03/09 04:06:36;;;;;;;13.13;6.00;;;0.20;72.10;;;;;;5046793;28;20500;-70
2021/03/09 04:09:05;;;;;;;11.48;5.13;;;0.20;71.50;;;;;;5045974;28;20078;-70
2021/03/09 04:11:32;;;;;;;10.38;5.13;;;0.20;70.70;;;;;;5046584;28;20037;-69
2021/03/09 04:14:01;;;;;;;9.07;3.65;;;0.10;70.10;;;;;;5047252;28;20521;-70
2021/03/09 04:16:30;;;;;;;7.57;3.28;;;0.20;67.60;;;;;;5047585;28;20056;-70
2021/03/09 04:18:56;;;;;;;8.02;3.00;;;0.10;65.00;;;;;;5047489;28;20028;-70
2021/03/09 04:21:23;;;;;;;6.85;3.40;;;0.10;65.40;;;;;;5047234;28;20532;-70
2021/03/09 04:23:51;;;;;;;6.97;3.08;;;0.00;65.10;;;;;;5047616;28;20013;-70
2021/03/09 04:26:17;;;;;;;12.38;4.53;;;0.00;65.00;;;;;;5047246;28;20040;-71
2021/03/09 04:28:43;;;;;;;;;;;-0.10;64.30;;;;;;5046436;28;20381;-70
2021/03/09 04:31:09;;;;;;;8.40;3.45;;;-0.10;63.60;;;;;;5047298;28;19909;-67
2021/03/09 04:33:35;;;;;;;6.05;2.50;;;-0.20;63.60;;;;;;5047359;28;20076;-69
2021/03/09 04:36:02;;;;;;;8.40;3.05;;;-0.30;63.50;;;;;;5047456;28;20231;-70
2021/03/09 04:38:28;;;;;;;12.15;4.55;;;-0.30;62.70;;;;;;5046981;28;20044;-70
2021/03/09 04:40:54;;;;;;;13.55;5.45;;;-0.30;62.50;;;;;;5045319;28;20071;-70
2021/03/09 04:43:20;;;;;;;13.98;5.65;;;-0.40;62.20;;;;;;5047257;28;20107;-70
2021/03/09 04:45:46;;;;;;;;;;;-0.40;61.90;;;;;;5046345;28;20120;-70
2021/03/09 04:48:12;;;;;;;11.30;4.60;;;-0.50;62.00;;;;;;5047017;28;19921;-70
2021/03/09 04:50:38;;;;;;;15.35;5.10;;;-0.50;62.50;;;;;;5046804;28;20056;-70
2021/03/09 04:53:07;;;;;;;14.32;4.43;;;-0.60;63.40;;;;;;5045629;28;20025;-69
2021/03/09 04:55:33;;;;;;;14.40;4.47;;;-0.70;63.40;;;;;;5047232;28;20036;-70
2021/03/09 04:58:01;;;;;;;12.60;5.35;;;-0.70;63.50;;;;;;5046492;28;20025;-71
2021/03/09 05:00:28;;;;;;;9.48;3.88;;;-0.80;63.80;;;;;;5045422;28;20039;-70
2021/03/09 05:02:54;;;;;;;8.88;4.25;;;-0.80;64.00;;;;;;5045285;28;20052;-70
2021/03/09 05:05:21;;;;;;;;;;;-0.90;64.00;;;;;;5045674;28;20071;-70
2021/03/09 05:07:47;;;;;;;11.70;3.88;;;-0.90;64.10;;;;;;5046918;28;19908;-70
2021/03/09 05:10:13;;;;;;;;;;;-0.90;64.40;;;;;;5046858;28;20060;-70
2021/03/09 05:12:44;;;;;;;72.57;22.50;;;-0.90;64.20;;;;;;5046509;28;19912;-69
2021/03/09 05:15:10;;;;;;;42.20;12.02;;;-1.00;63.10;;;;;;5045889;28;20029;-70
2021/03/09 05:17:37;;;;;;;45.28;14.57;;;-0.90;63.50;;;;;;5046562;28;20032;-69
2021/03/09 05:20:05;;;;;;;37.78;13.95;;;-1.00;63.50;;;;;;5045064;28;20032;-70
2021/03/09 05:22:30;;;;;;;44.10;13.68;;;-0.90;63.10;;;;;;5046230;28;20044;-71
2021/03/09 05:24:56;;;;;;;;;;;-0.90;63.10;;;;;;5046933;28;20029;-70
2021/03/09 05:27:21;;;;;;;22.05;8.50;;;-0.90;63.70;;;;;;5046422;28;20384;-70
2021/03/09 05:29:47;;;;;;;;;;;-0.80;63.00;;;;;;5046509;28;20060;-71
2021/03/09 05:32:12;;;;;;;34.08;13.30;;;-0.80;64.00;;;;;;5045985;28;19909;-70
2021/03/09 05:34:38;;;;;;;;;;;-0.80;63.90;;;;;;5046701;28;20115;-70
2021/03/09 05:37:07;;;;;;;43.58;13.23;;;-0.70;63.10;;;;;;5046101;28;19940;-70
2021/03/09 05:39:33;;;;;;;32.05;10.20;;;-0.60;60.70;;;;;;5045399;28;20029;-70
2021/03/09 05:41:58;;;;;;;;;;;-0.60;59.60;;;;;;5044553;28;20029;-70
2021/03/09 05:44:24;;;;;;;33.28;11.90;;;-0.60;59.70;;;;;;5045327;28;19912;-71
2021/03/09 05:46:49;;;;;;;;;;;-0.50;58.50;;;;;;5046299;28;20036;-71
2021/03/09 05:49:15;;;;;;;27.58;9.80;;;-0.30;58.60;;;;;;5045884;28;20358;-71
2021/03/09 05:51:41;;;;;;;;;;;-0.20;57.90;;;;;;5044573;28;20044;-71
2021/03/09 05:54:06;;;;;;;48.03;20.00;;;-0.10;58.40;;;;;;5044467;28;20526;-71
2021/03/09 05:56:32;;;;;;;;;;;-0.10;57.80;;;;;;5046517;28;20608;-71
2021/03/09 05:58:57;;;;;;;39.60;10.52;;;0.10;56.80;;;;;;5035130;28;20008;-72
2021/03/09 06:01:23;;;;;;;;;;;0.20;56.40;;;;;;5030227;28;20116;-71
2021/03/09 06:03:48;;;;;;;36.08;13.82;;;0.30;55.10;;;;;;5034988;28;20602;-71
2021/03/09 06:06:14;;;;;;;;;;;0.50;55.50;;;;;;5027119;28;20056;-71
2021/03/09 06:08:40;;;;;;;29.33;10.93;;;0.80;55.10;;;;;;5024856;28;19916;-72
2021/03/09 06:11:12;;;;;;;;;;;1.10;54.80;;;;;;5025114;28;20041;-71
2021/03/09 06:13:38;;;;;;;11.55;4.00;;;1.60;53.00;;;;;;5038040;28;20008;-68
2021/03/09 06:16:04;;;;;;;;;;;1.90;51.20;;;;;;5046358;28;20103;-69
2021/03/09 06:18:29;;;;;;;21.33;6.38;;;2.20;51.00;;;;;;5035172;28;19913;-69
2021/03/09 06:21:14;;;;;;;;;;;2.80;50.90;;;;;;5026402;28;20494;-68
2021/03/09 06:23:41;;;;;;;31.30;12.88;;;3.20;49.40;;;;;;5025645;28;20444;-69
2021/03/09 06:26:35;;;;;;;49.72;15.43;;;3.50;48.40;;;;;;5025984;28;20029;-69
2021/03/09 06:29:11;;;;;;;28.00;11.75;;;3.60;47.00;;;;;;5023735;28;20043;-68
2021/03/09 06:31:39;;;;;;;20.67;9.32;;;3.80;46.70;;;;;;5025971;28;20034;-69
2021/03/09 06:34:40;;;;;;;16.42;8.70;;;3.80;45.10;;;;;;5025494;28;20587;-69
2021/03/09 06:37:32;;;;;;;17.13;7.05;;;3.90;46.10;;;;;;5022585;28;20121;-70
2021/03/09 06:40:06;;;;;;;18.30;7.68;;;4.00;44.50;;;;;;5023072;28;20073;-69
2021/03/09 06:42:36;;;;;;;12.48;3.92;;;4.10;44.40;;;;;;5025260;28;20109;-68
2021/03/09 06:45:12;;;;;;;8.30;2.58;;;4.20;42.70;;;;;;5025641;28;20426;-69
2021/03/09 06:47:49;;;;;;;5.72;2.72;;;4.20;41.20;;;;;;5023883;28;20073;-69
2021/03/09 06:50:18;;;;;;;9.75;2.92;;;4.40;41.30;;;;;;5024205;28;20048;-69
2021/03/09 06:52:57;;;;;;;10.30;2.35;;;4.50;41.20;;;;;;5024191;28;20048;-71
2021/03/09 06:55:31;;;;;;;10.48;3.75;;;4.70;40.30;;;;;;5025760;28;20029;-70
2021/03/09 06:58:10;;;;;;;6.82;2.30;;;4.90;40.80;;;;;;5025413;28;20498;-69
2021/03/09 07:00:36;;;;;;;6.68;1.98;;;5.20;37.70;;;;;;5025731;28;20113;-71
2021/03/09 07:03:02;;;;;;;;;;;5.30;37.70;;;;;;5025927;28;20034;-71
2021/03/09 07:05:28;;;;;;;7.00;2.20;;;5.30;37.10;;;;;;5028128;28;19909;-71
2021/03/09 07:07:54;;;;;;;4.68;2.25;;;5.30;36.30;;;;;;5029292;28;20109;-71
2021/03/09 07:10:19;;;;;;;;;;;5.40;37.70;;;;;;5029223;28;20064;-71
2021/03/09 07:12:47;;;;;;;7.13;2.30;;;6.30;35.60;;;;;;5028365;28;19913;-71
2021/03/09 07:15:18;;;;;;;6.90;2.90;;;6.70;34.60;;;;;;5029039;28;20030;-71
2021/03/09 07:17:45;;;;;;;9.18;3.53;;;7.20;33.80;;;;;;5028454;28;20079;-71
2021/03/09 07:20:13;;;;;;;8.85;2.95;;;8.30;32.10;;;;;;5028762;28;20502;-72
2021/03/09 07:22:40;;;;;;;9.18;2.72;;;9.40;29.80;;;;;;5027654;28;20041;-71
2021/03/09 07:25:16;;;;;;;4.90;2.20;;;10.00;28.30;;;;;;5028026;28;20131;-71
2021/03/09 07:27:50;;;;;;;9.77;3.13;;;9.80;28.30;;;;;;5028423;28;20025;-71
2021/03/09 07:30:20;;;;;;;7.75;3.60;;;10.20;28.40;;;;;;5028645;28;20509;-70
2021/03/09 07:32:51;;;;;;;6.03;3.03;;;9.90;28.40;;;;;;5028168;28;20563;-72
2021/03/09 07:35:20;;;;;;;6.93;2.70;;;10.20;27.90;;;;;;5028563;28;20514;-72
2021/03/09 07:37:46;;;;;;;7.70;2.65;;;10.20;27.60;;;;;;5028529;28;20109;-72
2021/03/09 07:40:14;;;;;;;7.75;2.85;;;10.20;27.70;;;;;;5028451;28;20112;-71
2021/03/09 07:42:41;;;;;;;5.38;2.60;;;9.50;28.60;;;;;;5028243;28;20034;-71
2021/03/09 07:45:11;;;;;;;6.55;2.53;;;9.20;28.90;;;;;;5028001;28;20394;-71
2021/03/09 07:48:04;;;;;;;6.22;2.92;;;9.70;28.60;;;;;;5028040;28;20042;-72
2021/03/09 07:50:49;;;;;;;9.43;3.35;;;10.10;27.40;;;;;;5027961;28;20094;-71
2021/03/09 07:53:16;;;;;;;11.48;2.45;;;9.90;27.40;;;;;;5027435;28;20153;-71
2021/03/09 07:55:43;;;;;;;12.20;4.50;;;10.00;27.70;;;;;;5026644;28;20029;-70
2021/03/09 07:58:19;;;;;;;19.48;8.38;;;9.90;28.30;;;;;;5027911;28;20034;-72
2021/03/09 08:00:58;;;;;;;10.02;4.68;;;10.20;27.60;;;;;;5028273;28;20031;-71
2021/03/09 08:03:30;;;;;;;14.48;3.35;;;10.20;27.10;;;;;;5026462;28;20072;-72
2021/03/09 08:06:00;;;;;;;10.23;4.03;;;9.90;27.10;;;;;;5026644;28;20397;-71
2021/03/09 08:08:50;;;;;;;10.27;3.20;;;9.90;27.30;;;;;;5026407;28;20516;-71
2021/03/09 08:11:24;;;;;;;7.22;2.65;;;10.10;27.50;;;;;;5027287;28;20061;-71
2021/03/09 08:14:13;;;;;;;10.52;4.85;;;10.40;26.50;;;;;;5027675;28;20052;-72
2021/03/09 08:16:42;;;;;;;10.02;4.13;;;10.20;27.10;;;;;;5027442;28;20032;-71
2021/03/09 08:19:29;;;;;;;8.65;3.42;;;10.00;26.90;;;;;;5026245;28;20040;-71
2021/03/09 08:22:03;;;;;;;14.85;4.65;;;10.40;27.00;;;;;;5026535;28;20486;-71
2021/03/09 08:24:45;;;;;;;9.85;3.03;;;10.50;26.50;;;;;;5025844;28;20722;-72
2021/03/09 08:27:32;;;;;;;9.82;2.80;;;10.30;25.90;;;;;;5025992;28;20040;-71
2021/03/09 08:30:25;;;;;;;14.15;5.10;;;11.20;26.20;;;;;;5027522;28;20033;-70
2021/03/09 08:32:51;;;;;;;10.05;2.90;;;12.20;24.90;;;;;;5026815;28;20131;-69
2021/03/09 08:35:16;;;;;;;;;;;12.90;24.70;;;;;;5026452;28;20607;-70
2021/03/09 08:37:44;;;;;;;6.80;3.05;;;13.10;23.90;;;;;;5027420;28;20281;-71
2021/03/09 08:40:13;;;;;;;7.47;2.35;;;13.00;23.40;;;;;;5026254;28;20482;-69
2021/03/09 08:43:01;;;;;;;6.20;2.75;;;12.20;23.70;;;;;;5025975;28;20112;-68
2021/03/09 08:45:43;;;;;;;8.25;2.58;;;11.30;25.00;;;;;;5027281;28;20033;-71
2021/03/09 08:48:11;;;;;;;11.07;2.72;;;10.80;26.10;;;;;;5027018;28;20100;-71
2021/03/09 08:50:45;;;;;;;7.65;2.42;;;10.50;26.60;;;;;;5026011;28;20544;-71
2021/03/09 08:53:26;;;;;;;8.80;3.25;;;10.30;26.90;;;;;;5026957;28;20131;-71
2021/03/09 08:56:07;;;;;;;6.07;2.53;;;9.70;26.30;;;;;;5026934;28;20120;-71
2021/03/09 08:58:40;;;;;;;8.00;3.03;;;8.90;28.30;;;;;;5026777;28;20022;-72
2021/03/09 09:01:06;;;;;;;9.45;3.08;;;8.50;28.70;;;;;;5027101;28;20029;-72
2021/03/09 09:03:32;;;;;;;;;;;8.60;28.70;;;;;;5027480;28;20036;-72
2021/03/09 09:05:58;;;;;;;11.43;4.65;;;8.40;29.10;;;;;;5027054;28;19916;-69
2021/03/09 09:08:24;;;;;;;;;;;8.10;29.20;;;;;;5026930;28;20029;-71
2021/03/09 09:10:49;;;;;;;5.93;2.85;;;7.70;30.00;;;;;;5025029;28;19909;-71
2021/03/09 09:13:15;;;;;;;9.50;3.05;;;7.40;30.00;;;;;;5024923;28;20773;-70
2021/03/09 09:15:40;;;;;;;;;;;6.90;30.90;;;;;;5027014;28;20409;-70
2021/03/09 09:18:08;;;;;;;10.30;3.38;;;6.30;31.40;;;;;;5026502;28;19917;-70
2021/03/09 09:20:37;;;;;;;6.20;3.13;;;5.80;32.50;;;;;;5025004;28;20653;-71
2021/03/09 09:23:07;;;;;;;10.98;4.88;;;5.70;33.40;;;;;;5024974;28;20623;-70
2021/03/09 09:25:37;;;;;;;10.02;3.92;;;5.60;33.60;;;;;;5026418;28;20345;-71
2021/03/09 09:28:03;;;;;;;6.43;2.72;;;5.60;33.60;;;;;;5024119;28;20099;-71
2021/03/09 09:30:38;;;;;;;11.35;4.13;;;5.80;33.30;;;;;;5025358;28;20017;-70
2021/03/09 09:33:05;;;;;;;9.50;3.78;;;6.10;32.90;;;;;;5024651;28;20037;-71
2021/03/09 09:35:32;;;;;;;28.83;15.48;;;7.20;32.90;;;;;;5024890;28;20033;-72
2021/03/09 09:38:00;;;;;;;8.77;4.50;;;8.50;30.00;;;;;;5026369;28;20457;-71
2021/03/09 09:40:30;;;;;;;8.80;3.17;;;9.50;28.20;;;;;;5025645;28;20478;-71
2021/03/09 09:43:02;;;;;;;10.93;4.85;;;9.70;28.00;;;;;;5025962;28;20025;-71
2021/03/09 09:45:30;;;;;;;7.47;3.63;;;10.10;27.40;;;;;;5025919;28;20033;-71
2021/03/09 09:47:56;;;;;;;8.18;3.28;;;10.00;26.60;;;;;;5044242;28;20041;-71
2021/03/09 09:50:22;;;;;;;6.45;3.50;;;9.80;25.20;;;;;;5046045;28;20218;-71
2021/03/09 09:52:52;;;;;;;;;;;9.80;25.40;;;;;;5044618;28;20487;-73
2021/03/09 09:55:26;;;;;;;6.95;3.17;;;9.70;26.00;;;;;;5044527;28;19983;-72
2021/03/09 09:57:53;;;;;;;8.35;4.05;;;10.50;25.70;;;;;;5040013;28;20033;-72
2021/03/09 10:00:25;;;;;;;9.10;4.28;;;11.10;25.70;;;;;;5042536;28;20036;-72
2021/03/09 10:03:11;;;;;;;5.10;2.80;;;11.40;25.50;;;;;;5033396;28;20038;-72
2021/03/09 10:05:38;;;;;;;8.75;3.78;;;11.80;24.70;;;;;;5025851;28;20025;-70
2021/03/09 10:08:05;;;;;;;8.60;4.20;;;11.90;24.60;;;;;;5027133;28;20448;-73
2021/03/09 10:10:30;;;;;;;7.30;3.15;;;12.60;24.10;;;;;;5025861;28;20754;-73
2021/03/09 10:12:56;;;;;;;;;;;13.10;23.80;;;;;;5025825;28;20040;-72
2021/03/09 10:15:22;;;;;;;6.38;2.92;;;13.60;23.60;;;;;;5042384;28;19921;-72
2021/03/09 10:17:47;;;;;;;15.75;7.50;;;13.40;22.10;;;;;;5040256;28;20120;-71
2021/03/09 10:20:20;;;;;;;;;;;12.40;22.70;;;;;;5030742;28;20520;-70
2021/03/09 10:22:46;;;;;;;17.33;10.63;;;11.30;23.60;;;;;;5025180;28;19909;-73
2021/03/09 10:25:15;;;;;;;;;;;10.80;24.80;;;;;;5032307;28;20033;-73
2021/03/09 10:27:41;;;;;;;5.68;2.95;;;10.50;25.40;;;;;;5045338;28;19959;-73
2021/03/09 10:30:07;;;;;;;;;;;10.20;25.40;;;;;;5045724;28;20021;-73
2021/03/09 10:32:48;;;;;;;12.45;6.57;;;10.50;25.20;;;;;;5045585;28;19905;-73
2021/03/09 10:35:14;;;;;;;9.18;5.65;;;10.50;25.10;;;;;;5043214;28;20408;-72
2021/03/09 10:37:41;;;;;;;;;;;10.30;25.10;;;;;;5033815;28;20037;-73
2021/03/09 10:40:10;;;;;;;7.30;3.72;;;9.90;25.70;;;;;;5039475;28;19909;-69
2021/03/09 10:42:40;;;;;;;14.90;4.78;;;9.70;25.80;;;;;;5034582;28;20029;-71
2021/03/09 10:45:20;;;;;;;21.35;10.77;;;9.90;25.80;;;;;;5029218;28;20036;-70
2021/03/09 10:47:51;;;;;;;8.57;2.83;;;9.70;25.80;;;;;;5029201;28;20056;-71
2021/03/09 10:50:20;;;;;;;9.70;3.72;;;9.40;26.40;;;;;;5036969;28;20034;-70
2021/03/09 10:52:46;;;;;;;8.85;3.70;;;9.10;26.90;;;;;;5036777;28;20097;-70
2021/03/09 10:55:11;;;;;;;;;;;8.70;27.30;;;;;;5037347;28;20037;-70
2021/03/09 10:57:37;;;;;;;9.45;3.20;;;8.30;27.30;;;;;;5037866;28;20316;-70
2021/03/09 11:00:05;;;;;;;8.90;3.60;;;7.80;27.80;;;;;;5041330;28;20112;-70
2021/03/09 11:02:31;;;;;;;5.82;2.92;;;7.60;28.00;;;;;;5048992;28;20036;-70
2021/03/09 11:04:57;;;;;;;7.88;3.70;;;7.70;29.40;;;;;;5048828;28;20025;-71
2021/03/09 11:07:22;;;;;;;;;;;7.80;28.20;;;;;;5048210;28;20052;-70
2021/03/09 11:09:48;;;;;;;11.40;6.28;;;8.00;28.00;;;;;;5048135;28;20369;-70
2021/03/09 11:12:13;;;;;;;;;;;8.20;27.40;;;;;;5049261;28;20033;-69
2021/03/09 11:14:39;;;;;;;7.95;3.72;;;7.90;27.20;;;;;;5048857;28;19942;-73
2021/03/09 11:17:05;;;;;;;7.65;3.63;;;7.60;27.80;;;;;;5048725;28;20106;-69
2021/03/09 11:19:30;;;;;;;;;;;7.40;28.30;;;;;;5040664;28;20102;-70
2021/03/09 11:21:56;;;;;;;9.65;4.75;;;7.20;28.90;;;;;;5027457;28;19955;-70
2021/03/09 11:24:21;;;;;;;;;;;7.00;29.20;;;;;;5029159;28;20109;-71
2021/03/09 11:26:47;;;;;;;7.43;2.90;;;7.10;29.40;;;;;;5028564;28;20431;-70
2021/03/09 11:29:13;;;;;;;7.53;3.92;;;7.00;29.50;;;;;;5027148;28;20037;-68
2021/03/09 11:31:39;;;;;;;15.23;5.75;;;7.20;29.90;;;;;;5027494;28;20051;-69
2021/03/09 11:34:05;;;;;;;11.90;5.95;;;7.30;29.90;;;;;;5027134;28;20645;-70
2021/03/09 11:36:30;;;;;;;7.43;3.60;;;7.40;29.00;;;;;;5026493;28;20037;-69
2021/03/09 11:38:56;;;;;;;;;;;7.40;29.60;;;;;;5027673;28;20037;-70
2021/03/09 11:41:22;;;;;;;7.20;2.83;;;7.40;29.70;;;;;;5027236;28;19940;-69
2021/03/09 11:43:48;;;;;;;7.97;3.30;;;7.50;30.10;;;;;;5026311;28;20041;-68
2021/03/09 11:46:15;;;;;;;6.13;3.47;;;7.50;29.70;;;;;;5027250;28;20030;-70
2021/03/09 11:48:40;;;;;;;11.10;3.35;;;7.40;30.00;;;;;;5026708;28;20058;-69
2021/03/09 11:51:08;;;;;;;8.30;4.25;;;7.40;30.60;;;;;;5025291;28;20447;-69
2021/03/09 11:53:35;;;;;;;7.63;3.00;;;7.50;30.80;;;;;;5027079;28;20045;-68
2021/03/09 11:56:01;;;;;;;8.57;4.43;;;7.60;30.90;;;;;;5024224;28;20115;-69
2021/03/09 11:58:26;;;;;;;14.43;3.90;;;7.80;30.10;;;;;;5026892;28;20041;-69
2021/03/09 12:00:53;;;;;;;6.97;3.42;;;7.80;29.90;;;;;;5027064;28;20053;-69
2021/03/09 12:03:19;;;;;;;9.27;4.07;;;7.80;29.80;;;;;;5027153;28;20042;-69
2021/03/09 12:05:44;;;;;;;8.13;4.60;;;7.60;30.50;;;;;;5025218;28;20441;-69
2021/03/09 12:08:10;;;;;;;;;;;7.50;30.30;;;;;;5026956;28;20099;-70
2021/03/09 12:10:36;;;;;;;8.50;3.53;;;7.40;30.60;;;;;;5025721;28;19913;-69
2021/03/09 12:13:01;;;;;;;7.68;3.20;;;7.50;30.50;;;;;;5026782;28;20099;-69
2021/03/09 12:15:27;;;;;;;;;;;7.60;29.90;;;;;;5028327;28;20030;-69
2021/03/09 12:17:53;;;;;;;16.58;8.23;;;7.60;29.60;;;;;;5026560;28;19923;-70
2021/03/09 12:20:19;;;;;;;9.15;5.15;;;7.40;29.80;;;;;;5026936;28;20149;-69
2021/03/09 12:22:46;;;;;;;17.30;3.65;;;7.60;29.60;;;;;;5026036;28;20053;-69
2021/03/09 12:25:11;;;;;;;11.45;2.97;;;7.60;29.40;;;;;;5026199;28;20052;-69
2021/03/09 12:27:38;;;;;;;8.23;2.80;;;7.60;28.40;;;;;;5030402;28;20037;-68
2021/03/09 12:30:04;;;;;;;;;;;7.70;28.20;;;;;;5036119;28;20033;-69
2021/03/09 12:32:30;;;;;;;10.95;3.08;;;7.30;29.30;;;;;;5025394;28;20012;-69
2021/03/09 12:34:55;;;;;;;9.50;3.15;;;7.30;29.80;;;;;;5022894;28;20488;-68
2021/03/09 12:37:21;;;;;;;5.75;2.80;;;7.40;29.80;;;;;;5025452;28;20053;-69
2021/03/09 12:39:47;;;;;;;5.78;3.10;;;7.60;30.00;;;;;;5023490;28;20655;-69
2021/03/09 12:42:12;;;;;;;8.25;3.17;;;7.90;30.20;;;;;;5025444;28;20438;-70
2021/03/09 12:44:38;;;;;;;8.63;2.42;;;8.20;30.10;;;;;;5023537;28;20034;-70
2021/03/09 12:47:03;;;;;;;;;;;8.40;29.60;;;;;;5024001;28;20060;-69
2021/03/09 12:49:29;;;;;;;26.95;16.25;;;8.50;29.00;;;;;;5023908;28;19917;-70
2021/03/09 12:51:55;;;;;;;12.15;4.65;;;8.60;28.90;;;;;;5024779;28;20037;-69
2021/03/09 12:54:20;;;;;;;6.30;3.20;;;8.70;28.70;;;;;;5024494;28;20517;-69
2021/03/09 12:56:46;;;;;;;;;;;8.70;28.50;;;;;;5025370;28;20045;-69
2021/03/09 12:59:12;;;;;;;7.07;2.95;;;8.80;28.60;;;;;;5025056;28;19921;-69
2021/03/09 13:01:37;;;;;;;6.28;3.40;;;8.80;28.20;;;;;;5023965;28;20041;-69
2021/03/09 13:04:03;;;;;;;6.55;3.30;;;8.80;27.90;;;;;;5023121;28;20045;-69
2021/03/09 13:06:29;;;;;;;8.85;2.90;;;8.60;27.60;;;;;;5023499;28;20037;-69
2021/03/09 13:08:55;;;;;;;;;;;8.40;27.80;;;;;;5024539;28;20083;-70
2021/03/09 13:11:22;;;;;;;9.77;3.13;;;8.30;28.20;;;;;;5023237;28;19971;-68
2021/03/09 13:13:49;;;;;;;8.32;4.72;;;8.30;28.40;;;;;;5024124;28;20040;-70